createdAt,value
2022-07-30T00:02:00.988Z,4.30
2022-07-30T00:04:38.781Z,4.00
2022-07-30T00:07:11.975Z,4.10
2022-07-30T00:09:44.927Z,4.10
2022-07-30T00:12:18.002Z,4.10
2022-07-30T00:14:51.107Z,4.00
2022-07-30T00:17:24.080Z,4.00
2022-07-30T00:19:56.865Z,4.20
2022-07-30T00:22:30.147Z,3.80
2022-07-30T00:25:03.387Z,3.90
2022-07-30T00:27:37.075Z,4.30
2022-07-30T00:30:10.941Z,3.90
2022-07-30T00:32:46.101Z,3.87
2022-07-30T00:35:19.319Z,3.90
2022-07-30T00:37:52.164Z,4.20
2022-07-30T00:40:25.053Z,4.10
2022-07-30T00:42:57.988Z,3.60
2022-07-30T00:45:31.143Z,3.63
2022-07-30T00:48:04.243Z,3.60
2022-07-30T00:50:37.099Z,3.80
2022-07-30T00:53:10.458Z,3.60
2022-07-30T00:55:47.271Z,3.50
2022-07-30T00:58:20.248Z,3.87
2022-07-30T01:00:53.171Z,3.50
2022-07-30T01:03:26.105Z,3.30
2022-07-30T01:05:58.971Z,3.50
2022-07-30T01:08:31.709Z,3.50
2022-07-30T01:11:04.981Z,3.20
2022-07-30T01:13:37.558Z,3.20
2022-07-30T01:16:10.365Z,3.10
2022-07-30T01:19:01.509Z,3.10
2022-07-30T01:21:35.977Z,3.00
2022-07-30T01:24:13.554Z,3.40
2022-07-30T01:26:46.964Z,3.50
2022-07-30T01:29:21.102Z,3.40
2022-07-30T01:31:56.873Z,3.70
2022-07-30T01:34:33.147Z,3.40
2022-07-30T01:37:09.527Z,3.50
2022-07-30T01:39:49.019Z,3.77
2022-07-30T01:42:22.650Z,3.17
2022-07-30T01:44:56.635Z,3.00
2022-07-30T01:47:35.781Z,3.03
2022-07-30T01:50:11.174Z,3.20
2022-07-30T01:52:45.786Z,3.20
2022-07-30T01:55:21.950Z,3.00
2022-07-30T01:57:55.394Z,3.10
2022-07-30T02:00:29.823Z,3.30
2022-07-30T02:03:03.028Z,3.40
2022-07-30T02:05:38.078Z,3.10
2022-07-30T02:08:12.739Z,2.90
2022-07-30T02:10:59.827Z,3.00
2022-07-30T02:13:33.847Z,3.20
2022-07-30T02:16:12.243Z,3.20
2022-07-30T02:19:06.024Z,3.00
2022-07-30T02:21:49.640Z,3.00
2022-07-30T02:24:21.322Z,3.30
2022-07-30T02:26:56.353Z,3.00
2022-07-30T02:29:33.530Z,2.90
2022-07-30T02:32:08.477Z,3.10
2022-07-30T02:34:43.616Z,2.97
2022-07-30T02:37:18.464Z,3.10
2022-07-30T02:39:54.023Z,3.00
2022-07-30T02:42:28.116Z,3.00
2022-07-30T02:45:02.270Z,2.73
2022-07-30T02:47:37.180Z,2.90
2022-07-30T02:50:11.085Z,2.93
2022-07-30T02:52:48.938Z,3.00
2022-07-30T02:55:23.152Z,2.90
2022-07-30T02:57:57.307Z,3.10
2022-07-30T03:00:31.780Z,2.90
2022-07-30T03:03:08.385Z,3.00
2022-07-30T03:05:41.850Z,3.00
2022-07-30T03:08:14.953Z,2.80
2022-07-30T03:10:50.571Z,3.00
2022-07-30T03:13:25.494Z,2.80
2022-07-30T03:16:00.608Z,3.10
2022-07-30T03:18:35.371Z,3.00
2022-07-30T03:21:09.614Z,2.90
2022-07-30T03:23:43.285Z,2.80
2022-07-30T03:26:21.512Z,2.90
2022-07-30T03:28:54.654Z,3.00
2022-07-30T03:31:28.559Z,3.00
2022-07-30T03:34:01.654Z,3.00
2022-07-30T03:36:35.398Z,2.90
2022-07-30T03:39:10.315Z,2.80
2022-07-30T03:41:44.087Z,2.83
2022-07-30T03:44:17.367Z,2.70
2022-07-30T03:46:53.116Z,3.00
2022-07-30T03:49:28.093Z,3.00
2022-07-30T03:52:01.263Z,3.20
2022-07-30T03:54:36.721Z,3.10
2022-07-30T03:57:15.277Z,3.10
2022-07-30T03:59:48.518Z,3.10
2022-07-30T04:02:21.590Z,3.10
2022-07-30T04:04:54.510Z,2.90
2022-07-30T04:07:27.731Z,2.93
2022-07-30T04:10:00.727Z,2.90
2022-07-30T04:12:33.694Z,2.90
2022-07-30T04:16:05.680Z,3.10
2022-07-30T04:17:44.136Z,3.10
2022-07-30T04:20:34.470Z,3.00
2022-07-30T04:23:08.144Z,3.20
2022-07-30T04:25:41.399Z,3.10
2022-07-30T04:28:15.142Z,3.10
2022-07-30T04:30:53.638Z,3.30
2022-07-30T04:33:26.609Z,3.10
2022-07-30T04:36:01.349Z,2.80
2022-07-30T04:38:34.369Z,2.90
2022-07-30T04:41:07.288Z,2.90
2022-07-30T04:43:40.143Z,2.77
2022-07-30T04:46:13.161Z,2.90
2022-07-30T04:48:48.158Z,2.90
2022-07-30T04:51:31.785Z,2.90
2022-07-30T04:54:06.139Z,3.00
2022-07-30T04:56:39.702Z,2.80
2022-07-30T04:59:14.727Z,2.90
2022-07-30T05:01:49.843Z,2.90
2022-07-30T05:04:24.198Z,2.90
2022-07-30T05:06:58.183Z,2.90
2022-07-30T05:09:32.824Z,3.00
2022-07-30T05:12:05.786Z,2.90
2022-07-30T05:14:38.800Z,2.80
2022-07-30T05:17:11.745Z,2.90
2022-07-30T05:19:44.904Z,2.70
2022-07-30T05:22:23.097Z,2.70
2022-07-30T05:25:00.013Z,2.80
2022-07-30T05:27:53.030Z,2.70
2022-07-30T05:30:27.743Z,2.70
2022-07-30T05:33:02.782Z,2.80
2022-07-30T05:35:34.137Z,2.70
2022-07-30T05:38:07.202Z,2.67
2022-07-30T05:40:44.581Z,2.50
2022-07-30T05:43:17.635Z,2.60
2022-07-30T05:45:50.472Z,2.50
2022-07-30T05:48:23.288Z,2.50
2022-07-30T05:50:56.303Z,2.50
2022-07-30T05:53:29.257Z,2.60
2022-07-30T05:56:02.186Z,2.73
2022-07-30T05:58:35.212Z,2.60
2022-07-30T06:01:08.178Z,2.80
2022-07-30T06:03:41.071Z,2.60
2022-07-30T06:06:14.129Z,2.60
2022-07-30T06:08:47.018Z,2.60
2022-07-30T06:11:20.044Z,2.50
2022-07-30T06:13:53.174Z,2.50
2022-07-30T06:16:26.207Z,2.80
2022-07-30T06:19:00.320Z,2.70
2022-07-30T06:22:06.202Z,2.80
2022-07-30T06:24:12.089Z,2.60
2022-07-30T06:26:45.451Z,2.50
2022-07-30T06:29:18.364Z,2.50
2022-07-30T06:31:51.283Z,2.60
2022-07-30T06:34:24.146Z,2.60
2022-07-30T06:36:57.266Z,2.40
2022-07-30T06:39:56.607Z,2.60
2022-07-30T06:42:04.550Z,2.50
2022-07-30T06:44:46.457Z,2.50
2022-07-30T06:47:21.568Z,2.50
2022-07-30T06:49:54.882Z,2.40
2022-07-30T06:52:28.071Z,2.70
2022-07-30T06:55:00.894Z,2.60
2022-07-30T06:57:40.340Z,2.60
2022-07-30T07:00:11.597Z,2.80
2022-07-30T07:02:45.185Z,3.00
2022-07-30T07:05:18.085Z,2.70
2022-07-30T07:07:58.871Z,2.80
2022-07-30T07:10:25.548Z,2.60
2022-07-30T07:12:58.313Z,2.60
2022-07-30T07:15:36.086Z,2.63
2022-07-30T07:18:05.365Z,2.60
2022-07-30T07:20:41.129Z,2.60
2022-07-30T07:23:14.072Z,2.60
2022-07-30T07:25:47.053Z,2.50
2022-07-30T07:28:20.281Z,2.60
2022-07-30T07:30:53.623Z,2.80
2022-07-30T07:33:31.006Z,2.80
2022-07-30T07:36:04.108Z,2.70
2022-07-30T07:38:36.887Z,2.57
2022-07-30T07:41:10.145Z,2.60
2022-07-30T07:43:43.276Z,2.50
2022-07-30T07:46:33.640Z,2.70
2022-07-30T07:48:51.770Z,2.60
2022-07-30T07:51:47.555Z,2.60
2022-07-30T07:54:19.863Z,2.70
2022-07-30T07:56:33.585Z,2.60
2022-07-30T07:59:11.831Z,2.63
2022-07-30T08:01:45.887Z,2.70
2022-07-30T08:04:18.875Z,2.70
2022-07-30T08:06:51.736Z,2.70
2022-07-30T08:09:25.000Z,2.50
2022-07-30T08:11:57.870Z,2.40
2022-07-30T08:14:32.008Z,2.50
2022-07-30T08:17:05.573Z,2.50
2022-07-30T08:19:38.733Z,2.70
2022-07-30T08:22:12.473Z,2.67
2022-07-30T08:24:45.562Z,2.57
2022-07-30T08:27:18.559Z,2.50
2022-07-30T08:29:51.547Z,2.60
2022-07-30T08:32:24.553Z,2.70
2022-07-30T08:34:57.673Z,2.70
2022-07-30T08:37:30.561Z,2.80
2022-07-30T08:40:03.251Z,2.70
2022-07-30T08:42:40.493Z,2.80
2022-07-30T08:45:15.084Z,2.70
2022-07-30T08:47:49.025Z,2.60
2022-07-30T08:50:22.437Z,2.70
2022-07-30T08:52:59.908Z,2.70
2022-07-30T08:55:33.301Z,2.80
2022-07-30T08:58:06.955Z,2.60
2022-07-30T09:00:43.892Z,2.60
2022-07-30T09:03:16.842Z,2.60
2022-07-30T09:05:50.002Z,2.60
2022-07-30T09:08:23.041Z,2.50
2022-07-30T09:10:56.042Z,2.70
2022-07-30T09:13:39.618Z,2.70
2022-07-30T09:16:13.731Z,2.40
2022-07-30T09:18:46.785Z,2.40
2022-07-30T09:21:25.488Z,2.50
2022-07-30T09:24:09.202Z,2.60
2022-07-30T09:27:02.159Z,2.60
2022-07-30T09:29:35.722Z,2.60
2022-07-30T09:32:11.333Z,2.60
2022-07-30T09:34:44.660Z,2.70
2022-07-30T09:37:22.470Z,2.70
2022-07-30T09:40:00.066Z,2.70
2022-07-30T09:42:34.963Z,2.80
2022-07-30T09:45:13.272Z,2.80
2022-07-30T09:47:53.435Z,2.70
2022-07-30T09:50:33.541Z,2.50
2022-07-30T09:53:14.552Z,2.67
2022-07-30T09:55:47.715Z,2.70
2022-07-30T09:58:27.062Z,2.70
2022-07-30T10:01:00.577Z,2.50
2022-07-30T10:03:42.429Z,2.70
2022-07-30T10:06:08.863Z,2.60
2022-07-30T10:08:51.564Z,2.60
2022-07-30T10:11:31.316Z,2.60
2022-07-30T10:14:05.092Z,2.40
2022-07-30T10:16:37.976Z,2.50
2022-07-30T10:19:18.115Z,2.60
2022-07-30T10:21:48.826Z,2.50
2022-07-30T10:24:27.596Z,2.60
2022-07-30T10:27:00.026Z,2.50
2022-07-30T10:29:34.841Z,2.50
2022-07-30T10:32:10.545Z,2.47
2022-07-30T10:34:43.928Z,2.63
2022-07-30T10:37:18.618Z,2.50
2022-07-30T10:40:15.002Z,2.70
2022-07-30T10:43:11.910Z,2.70
2022-07-30T10:46:22.774Z,2.60
2022-07-30T10:48:52.172Z,2.70
2022-07-30T10:51:34.582Z,2.70
2022-07-30T10:53:59.986Z,2.80
2022-07-30T10:56:33.257Z,2.80
2022-07-30T10:59:08.418Z,2.70
2022-07-30T11:01:55.378Z,2.60
2022-07-30T11:04:32.416Z,2.80
2022-07-30T11:07:27.268Z,2.80
2022-07-30T11:10:08.780Z,2.80
2022-07-30T11:12:53.007Z,2.67
2022-07-30T11:15:33.234Z,3.33
2022-07-30T11:18:12.945Z,2.83
2022-07-30T11:20:40.010Z,2.83
2022-07-30T11:23:29.520Z,3.00
2022-07-30T11:26:03.926Z,3.00
2022-07-30T11:28:49.308Z,2.90
2022-07-30T11:31:56.262Z,2.80
2022-07-30T11:34:31.655Z,2.80
2022-07-30T11:37:31.772Z,2.80
2022-07-30T11:40:01.629Z,2.80
2022-07-30T11:42:38.416Z,2.83
2022-07-30T11:45:26.185Z,2.87
2022-07-30T11:48:01.747Z,2.90
2022-07-30T11:50:36.401Z,2.80
2022-07-30T11:53:14.513Z,2.90
2022-07-30T11:55:53.993Z,3.00
2022-07-30T11:58:35.272Z,2.90
2022-07-30T12:01:09.827Z,2.90
2022-07-30T12:03:46.498Z,2.90
2022-07-30T12:06:21.305Z,2.70
2022-07-30T12:08:58.533Z,2.70
2022-07-30T12:11:30.683Z,2.80
2022-07-30T12:14:04.361Z,2.80
2022-07-30T12:16:37.989Z,2.90
2022-07-30T12:19:11.178Z,3.10
2022-07-30T12:21:43.815Z,2.90
2022-07-30T12:24:16.836Z,2.90
2022-07-30T12:26:50.223Z,2.70
2022-07-30T12:29:23.125Z,2.80
2022-07-30T12:31:57.044Z,2.90
2022-07-30T12:34:30.593Z,2.90
2022-07-30T12:37:13.505Z,2.80
2022-07-30T12:39:46.447Z,2.80
2022-07-30T12:42:26.923Z,2.90
2022-07-30T12:44:59.828Z,2.80
2022-07-30T12:47:33.798Z,2.90
2022-07-30T12:50:08.364Z,2.80
2022-07-30T12:52:46.037Z,2.80
2022-07-30T12:55:19.402Z,2.77
2022-07-30T12:58:08.822Z,2.80
2022-07-30T13:00:52.833Z,2.80
2022-07-30T13:03:27.980Z,2.80
2022-07-30T13:06:05.498Z,2.90
2022-07-30T13:08:59.422Z,2.90
2022-07-30T13:11:48.706Z,2.80
2022-07-30T13:14:18.810Z,2.97
2022-07-30T13:17:01.034Z,2.90
2022-07-30T13:19:34.164Z,2.80
2022-07-30T13:22:07.302Z,2.80
2022-07-30T13:24:41.098Z,3.20
2022-07-30T13:27:14.794Z,2.70
2022-07-30T13:29:47.921Z,2.73
2022-07-30T13:32:20.729Z,2.70
2022-07-30T13:34:53.566Z,2.70
2022-07-30T13:37:38.460Z,2.80
2022-07-30T13:40:01.077Z,2.87
2022-07-30T13:42:34.288Z,2.90
2022-07-30T13:45:07.406Z,3.10
2022-07-30T13:47:44.114Z,2.80
2022-07-30T13:50:17.483Z,2.80
2022-07-30T13:52:50.142Z,2.80
2022-07-30T13:55:23.131Z,2.60
2022-07-30T13:57:56.158Z,2.63
2022-07-30T14:00:30.518Z,2.80
2022-07-30T14:03:05.623Z,2.60
2022-07-30T14:05:42.342Z,2.60
2022-07-30T14:08:14.866Z,2.50
2022-07-30T14:10:48.126Z,2.40
2022-07-30T14:13:21.528Z,2.50
2022-07-30T14:15:58.635Z,2.80
2022-07-30T14:18:31.625Z,2.50
2022-07-30T14:21:05.187Z,2.43
2022-07-30T14:23:38.004Z,2.70
2022-07-30T14:26:11.051Z,2.70
2022-07-30T14:28:43.743Z,2.30
2022-07-30T14:31:16.534Z,2.70
2022-07-30T14:33:49.384Z,2.70
2022-07-30T14:36:26.113Z,2.70
2022-07-30T14:39:03.679Z,3.00
2022-07-30T14:41:36.723Z,3.03
2022-07-30T14:44:11.111Z,2.90
2022-07-30T14:46:52.431Z,2.70
2022-07-30T14:49:18.294Z,2.90
2022-07-30T14:51:50.919Z,2.90
2022-07-30T14:54:24.380Z,3.00
2022-07-30T14:56:58.539Z,2.90
2022-07-30T14:59:32.583Z,2.93
2022-07-30T15:02:10.699Z,2.90
2022-07-30T15:04:42.478Z,2.90
2022-07-30T15:07:18.026Z,2.83
2022-07-30T15:09:51.519Z,2.80
2022-07-30T15:12:28.680Z,2.50
2022-07-30T15:15:01.809Z,2.50
2022-07-30T15:17:39.008Z,2.30
2022-07-30T15:20:12.652Z,2.50
2022-07-30T15:22:45.510Z,2.40
2022-07-30T15:25:22.470Z,2.50
2022-07-30T15:27:55.696Z,2.50
2022-07-30T15:30:28.744Z,2.60
2022-07-30T15:33:01.674Z,2.50
2022-07-30T15:35:34.763Z,2.60
2022-07-30T15:38:07.685Z,2.60
2022-07-30T15:40:40.515Z,2.60
2022-07-30T15:43:13.378Z,2.80
2022-07-30T15:45:55.505Z,2.40
2022-07-30T15:48:26.639Z,2.40
2022-07-30T15:50:58.495Z,2.40
2022-07-30T15:53:31.807Z,2.40
2022-07-30T15:56:04.634Z,2.30
2022-07-30T15:58:43.537Z,2.50
2022-07-30T16:01:16.493Z,2.37
2022-07-30T16:03:49.223Z,2.30
2022-07-30T16:06:25.617Z,2.13
2022-07-30T16:08:58.461Z,2.50
2022-07-30T16:11:36.079Z,2.20
2022-07-30T16:14:09.213Z,2.30
2022-07-30T16:16:42.150Z,2.40
2022-07-30T16:19:15.510Z,2.30
2022-07-30T16:21:48.403Z,2.40
2022-07-30T16:24:21.407Z,2.30
2022-07-30T16:26:54.476Z,2.27
2022-07-30T16:29:27.393Z,2.20
2022-07-30T16:32:00.839Z,2.30
2022-07-30T16:34:39.015Z,2.20
2022-07-30T16:37:12.213Z,2.10
2022-07-30T16:39:45.432Z,2.10
2022-07-30T16:42:18.960Z,2.10
2022-07-30T16:44:51.754Z,2.10
2022-07-30T16:47:24.929Z,2.10
2022-07-30T16:49:57.693Z,2.30
2022-07-30T16:52:30.642Z,2.17
2022-07-30T16:55:04.085Z,2.30
2022-07-30T16:57:37.088Z,2.10
2022-07-30T17:00:15.826Z,2.20
2022-07-30T17:02:48.925Z,2.10
2022-07-30T17:05:26.329Z,2.20
2022-07-30T17:08:03.491Z,2.20
2022-07-30T17:10:36.528Z,2.20
2022-07-30T17:13:09.583Z,2.00
2022-07-30T17:15:42.520Z,2.07
2022-07-30T17:18:15.775Z,2.10
2022-07-30T17:20:48.585Z,2.20
2022-07-30T17:23:21.440Z,2.10
2022-07-30T17:25:54.409Z,2.10
2022-07-30T17:28:27.386Z,2.10
2022-07-30T17:31:00.379Z,2.20
2022-07-30T17:33:33.167Z,2.00
2022-07-30T17:36:06.357Z,2.00
2022-07-30T17:38:39.367Z,2.00
2022-07-30T17:41:13.621Z,2.00
2022-07-30T17:43:46.955Z,2.00
2022-07-30T17:46:19.824Z,1.80
2022-07-30T17:48:52.916Z,1.90
2022-07-30T17:51:26.090Z,1.90
2022-07-30T17:54:01.552Z,2.10
2022-07-30T17:56:33.400Z,1.90
2022-07-30T17:59:08.795Z,1.90
2022-07-30T18:01:41.471Z,1.90
2022-07-30T18:04:14.215Z,2.00
2022-07-30T18:06:50.218Z,2.10
2022-07-30T18:09:22.999Z,2.00
2022-07-30T18:11:58.346Z,2.10
2022-07-30T18:14:32.268Z,2.10
2022-07-30T18:17:05.378Z,2.00
2022-07-30T18:19:38.394Z,1.70
2022-07-30T18:22:14.670Z,1.90
2022-07-30T18:24:46.976Z,1.90
2022-07-30T18:27:21.076Z,1.70
2022-07-30T18:29:56.918Z,2.00
2022-07-30T18:32:29.920Z,1.80
2022-07-30T18:35:02.662Z,1.90
2022-07-30T18:37:41.263Z,1.90
2022-07-30T18:40:10.132Z,1.80
2022-07-30T18:42:42.933Z,1.90
2022-07-30T18:45:16.812Z,1.70
2022-07-30T18:47:50.599Z,1.40
2022-07-30T18:50:23.798Z,1.40
2022-07-30T18:52:57.469Z,1.40
2022-07-30T18:55:32.874Z,1.20
2022-07-30T18:58:23.644Z,1.20
2022-07-30T19:00:41.541Z,1.20
2022-07-30T19:06:06.894Z,1.20
2022-07-30T19:08:41.163Z,1.20
2022-07-30T19:11:14.326Z,1.13
2022-07-30T19:13:51.376Z,1.10
2022-07-30T19:16:24.577Z,1.20
2022-07-30T19:19:01.397Z,1.10
2022-07-30T19:21:34.911Z,1.10
2022-07-30T19:24:08.179Z,1.10
2022-07-30T19:26:42.937Z,1.10
2022-07-30T19:29:16.011Z,1.10
2022-07-30T19:31:48.870Z,1.10
2022-07-30T19:34:21.612Z,1.00
2022-07-30T19:36:54.466Z,1.20
2022-07-30T19:39:27.303Z,1.10
2022-07-30T19:42:00.837Z,1.10
2022-07-30T19:44:35.044Z,1.10
2022-07-30T19:47:07.840Z,1.00
2022-07-30T19:49:41.702Z,1.10
2022-07-30T19:52:23.366Z,1.10
2022-07-30T19:54:49.814Z,1.00
2022-07-30T19:57:22.935Z,1.10
2022-07-30T20:00:00.091Z,1.00
2022-07-30T20:02:34.562Z,1.00
2022-07-30T20:05:11.147Z,1.00
2022-07-30T20:07:44.564Z,1.00
2022-07-30T20:10:17.640Z,1.00
2022-07-30T20:12:50.952Z,1.10
2022-07-30T20:15:23.682Z,1.00
2022-07-30T20:18:01.084Z,1.00
2022-07-30T20:20:35.583Z,1.00
2022-07-30T20:23:09.876Z,1.00
2022-07-30T20:25:43.797Z,1.10
2022-07-30T20:28:17.991Z,1.00
2022-07-30T20:30:51.476Z,1.00
2022-07-30T20:33:35.885Z,1.10
2022-07-30T20:35:58.890Z,1.10
2022-07-30T20:38:35.721Z,1.30
2022-07-30T20:41:10.277Z,1.30
2022-07-30T20:43:51.595Z,1.20
2022-07-30T20:46:18.043Z,1.30
2022-07-30T20:48:52.244Z,1.20
2022-07-30T20:51:33.011Z,1.30
2022-07-30T20:53:59.633Z,1.30
2022-07-30T20:56:32.930Z,1.30
2022-07-30T20:59:05.972Z,1.20
2022-07-30T21:01:39.629Z,1.20
2022-07-30T21:04:25.555Z,1.30
2022-07-30T21:06:48.825Z,1.50
2022-07-30T21:09:25.025Z,1.67
2022-07-30T21:12:00.174Z,1.70
2022-07-30T21:14:33.220Z,1.60
2022-07-30T21:17:06.817Z,1.43
2022-07-30T21:19:39.799Z,1.40
2022-07-30T21:22:13.099Z,1.33
2022-07-30T21:24:46.258Z,1.40
2022-07-30T21:27:20.308Z,1.50
2022-07-30T21:29:53.846Z,1.60
2022-07-30T21:32:27.184Z,1.70
2022-07-30T21:35:00.492Z,1.60
2022-07-30T21:37:38.863Z,1.50
2022-07-30T21:40:13.812Z,1.50
2022-07-30T21:42:48.485Z,1.40
2022-07-30T21:45:21.838Z,1.50
2022-07-30T21:47:56.141Z,1.63
2022-07-30T21:50:57.655Z,1.60
2022-07-30T21:53:09.291Z,1.70
2022-07-30T21:55:52.905Z,2.00
2022-07-30T21:58:25.782Z,1.80
2022-07-30T22:00:58.307Z,2.00
2022-07-30T22:04:03.414Z,2.10
2022-07-30T22:06:17.105Z,2.20
2022-07-30T22:08:49.356Z,2.30
2022-07-30T22:11:22.130Z,2.30
2022-07-30T22:13:55.050Z,2.53
2022-07-30T22:16:30.060Z,2.60
2022-07-30T22:19:07.195Z,2.60
2022-07-30T22:21:40.580Z,2.80
2022-07-30T22:24:29.264Z,2.80
2022-07-30T22:26:57.455Z,2.60
2022-07-30T22:29:34.463Z,2.47
2022-07-30T22:32:13.517Z,2.50
2022-07-30T22:34:47.354Z,2.40
2022-07-30T22:37:21.792Z,2.50
2022-07-30T22:40:02.093Z,2.80
2022-07-30T22:42:46.812Z,2.90
2022-07-30T22:45:09.879Z,3.10
2022-07-30T22:47:51.550Z,3.30
2022-07-30T22:50:26.010Z,3.40
2022-07-30T22:53:56.659Z,3.30
2022-07-30T22:55:37.503Z,3.40
2022-07-30T22:58:10.350Z,3.67
2022-07-30T23:00:43.375Z,3.63
2022-07-30T23:03:17.035Z,3.70
2022-07-30T23:05:56.188Z,3.90
2022-07-30T23:08:30.312Z,4.10
2022-07-30T23:10:58.779Z,4.30
2022-07-30T23:13:31.606Z,4.00
2022-07-30T23:16:04.484Z,4.10
2022-07-30T23:18:44.110Z,4.30
2022-07-30T23:21:17.205Z,4.00
2022-07-30T23:23:50.096Z,3.73
2022-07-30T23:26:27.047Z,4.00
2022-07-30T23:29:00.745Z,4.00
2022-07-30T23:31:33.680Z,3.90
2022-07-30T23:34:07.697Z,4.60
2022-07-30T23:36:44.622Z,4.20
2022-07-30T23:39:17.537Z,5.00
2022-07-30T23:41:50.580Z,5.00
2022-07-30T23:44:23.434Z,4.50
2022-07-30T23:46:56.307Z,4.70
2022-07-30T23:49:31.584Z,4.40
2022-07-30T23:52:04.099Z,4.10
2022-07-30T23:54:36.913Z,3.90
2022-07-30T23:57:09.679Z,4.00
2022-07-30T23:59:42.533Z,4.20
